In Rescue
 
Open Full Screen Window  High Contrast Mode
Wind Gusting 14 knots
06
March 01, 2024 5:10 PM EST
Weather Information
Wind Direction
  180 °
Wind Speed
  06 kt (7 mph)
Wind Gust
  14 kt (16 mph)
Variable Wind
160°
220°
Altimeter
30.22 in
Visibility
10 SM
Temperature
07° C
45° F
Dewpoint
-09° C
16° F
Humidity
31%
Sky Condition
Clear
VFR

METAR KVLL 012210Z AUTO 18006G14KT 160V220 10SM CLR 07/M09 A3022 RMK AO2 T00721090

FAA Disclaimer: The data displayed is for advisory purposes only and is not to be used for flight planning or operations.